createdAt,value
2019-03-09T00:02:52.779Z,8.80
2019-03-09T00:05:55.696Z,8.70
2019-03-09T00:08:58.875Z,8.80
2019-03-09T00:12:02.176Z,8.90
2019-03-09T00:15:05.856Z,8.80
2019-03-09T00:18:09.431Z,8.80
2019-03-09T00:21:12.910Z,8.80
2019-03-09T00:24:42.296Z,8.90
2019-03-09T00:27:49.421Z,8.90
2019-03-09T00:31:01.253Z,9.00
2019-03-09T00:34:04.777Z,9.00
2019-03-09T00:37:08.333Z,9.00
2019-03-09T00:40:13.005Z,8.90
2019-03-09T00:43:15.954Z,8.90
2019-03-09T00:46:19.170Z,9.00
2019-03-09T00:49:22.536Z,9.00
2019-03-09T00:52:25.814Z,9.00
2019-03-09T00:55:29.088Z,8.90
2019-03-09T00:58:34.380Z,8.90
2019-03-09T01:01:38.375Z,9.00
2019-03-09T01:04:41.705Z,8.80
2019-03-09T01:07:44.929Z,8.80
2019-03-09T01:10:48.213Z,8.70
2019-03-09T01:13:52.194Z,8.70
2019-03-09T01:16:55.405Z,8.60
2019-03-09T01:19:58.338Z,8.50
2019-03-09T01:23:02.288Z,8.40
2019-03-09T01:26:05.246Z,8.30
2019-03-09T01:29:08.723Z,8.30
2019-03-09T01:32:11.840Z,8.30
2019-03-09T01:35:15.866Z,8.30
2019-03-09T01:38:19.718Z,8.30
2019-03-09T01:41:22.642Z,8.30
2019-03-09T01:44:27.142Z,8.20
2019-03-09T01:47:30.698Z,8.20
2019-03-09T01:50:33.657Z,8.30
2019-03-09T01:53:37.167Z,8.30
2019-03-09T01:56:40.429Z,8.30
2019-03-09T01:59:43.373Z,8.30
2019-03-09T02:02:47.834Z,8.40
2019-03-09T02:05:51.313Z,8.30
2019-03-09T02:08:54.274Z,8.30
2019-03-09T02:11:57.185Z,8.20
2019-03-09T02:15:00.822Z,8.20
2019-03-09T02:18:04.212Z,8.20
2019-03-09T02:21:07.514Z,8.20
2019-03-09T02:24:11.019Z,8.20
2019-03-09T02:27:14.223Z,8.10
2019-03-09T02:30:17.607Z,8.30
2019-03-09T02:33:21.225Z,8.20
2019-03-09T02:36:24.606Z,8.30
2019-03-09T02:39:44.729Z,8.20
2019-03-09T02:42:48.271Z,8.20
2019-03-09T02:45:51.530Z,8.20
2019-03-09T02:48:54.756Z,8.20
2019-03-09T02:51:57.973Z,8.30
2019-03-09T02:55:01.657Z,8.30
2019-03-09T02:58:04.666Z,8.20
2019-03-09T03:01:19.687Z,8.30
2019-03-09T03:04:23.203Z,8.30
2019-03-09T03:07:27.247Z,8.20
2019-03-09T03:10:31.313Z,8.30
2019-03-09T03:13:34.252Z,8.30
2019-03-09T03:16:37.836Z,8.30
2019-03-09T03:19:41.444Z,8.30
2019-03-09T03:22:44.394Z,8.40
2019-03-09T03:25:47.697Z,8.40
2019-03-09T03:28:51.560Z,8.30
2019-03-09T03:31:54.530Z,8.30
2019-03-09T03:34:57.453Z,8.30
2019-03-09T03:38:00.385Z,8.30
2019-03-09T03:41:03.643Z,8.30
2019-03-09T03:44:06.963Z,8.40
2019-03-09T03:47:10.173Z,8.30
2019-03-09T03:50:13.531Z,8.40
2019-03-09T03:53:17.488Z,8.40
2019-03-09T03:56:20.422Z,8.30
2019-03-09T03:59:23.649Z,8.40
2019-03-09T04:02:26.913Z,8.40
2019-03-09T04:05:30.284Z,8.40
2019-03-09T04:08:33.522Z,8.40
2019-03-09T04:11:36.442Z,8.40
2019-03-09T04:14:39.372Z,8.40
2019-03-09T04:17:42.936Z,8.50
2019-03-09T04:20:46.902Z,8.50
2019-03-09T04:23:49.825Z,8.60
2019-03-09T04:26:53.127Z,8.50
2019-03-09T04:29:56.077Z,8.50
2019-03-09T04:32:59.580Z,8.50
2019-03-09T04:36:02.505Z,8.60
2019-03-09T04:39:06.050Z,8.60
2019-03-09T04:42:09.101Z,8.60
2019-03-09T04:45:12.098Z,8.60
2019-03-09T04:48:15.355Z,8.60
2019-03-09T04:51:18.888Z,8.70
2019-03-09T04:54:22.689Z,8.70
2019-03-09T04:57:25.631Z,8.70
2019-03-09T05:00:28.947Z,8.70
2019-03-09T05:03:32.179Z,8.70
2019-03-09T05:06:35.114Z,8.70
2019-03-09T05:10:05.903Z,8.70
2019-03-09T05:13:44.232Z,8.70
2019-03-09T05:16:47.154Z,8.70
2019-03-09T05:19:50.491Z,8.80
2019-03-09T05:22:53.483Z,8.80
2019-03-09T05:25:57.595Z,8.80
2019-03-09T05:29:01.212Z,8.80
2019-03-09T05:32:04.710Z,8.80
2019-03-09T05:35:08.122Z,8.80
2019-03-09T05:38:11.047Z,8.80
2019-03-09T05:41:13.995Z,8.80
2019-03-09T05:44:17.267Z,8.90
2019-03-09T05:47:20.566Z,8.90
2019-03-09T05:50:23.479Z,8.90
2019-03-09T05:53:26.691Z,8.90
2019-03-09T05:56:30.014Z,8.90
2019-03-09T05:59:33.646Z,8.90
2019-03-09T06:02:36.949Z,8.80
2019-03-09T06:05:59.285Z,8.80
2019-03-09T06:09:02.579Z,8.80
2019-03-09T06:12:07.430Z,8.80
2019-03-09T06:15:10.492Z,8.80
2019-03-09T06:18:13.764Z,8.70
2019-03-09T06:21:17.440Z,8.70
2019-03-09T06:24:20.346Z,8.70
2019-03-09T06:27:24.033Z,8.70
2019-03-09T06:30:26.976Z,8.70
2019-03-09T06:33:32.107Z,8.70
2019-03-09T06:37:12.360Z,8.70
2019-03-09T06:40:15.750Z,8.70
2019-03-09T06:43:18.689Z,8.70
2019-03-09T06:46:21.626Z,8.70
2019-03-09T06:49:25.252Z,8.70
2019-03-09T06:52:28.563Z,8.80
2019-03-09T06:55:31.797Z,8.80
2019-03-09T06:58:35.082Z,8.80
2019-03-09T07:01:38.016Z,8.90
2019-03-09T07:04:41.246Z,8.90
2019-03-09T07:07:44.153Z,8.90
2019-03-09T07:10:47.076Z,8.90
2019-03-09T07:13:53.229Z,9.00
2019-03-09T07:16:57.012Z,9.10
2019-03-09T07:20:11.861Z,9.10
2019-03-09T07:23:06.757Z,9.10
2019-03-09T07:26:09.684Z,9.20
2019-03-09T07:29:12.941Z,9.20
2019-03-09T07:32:15.860Z,9.20
2019-03-09T07:35:19.140Z,9.20
2019-03-09T07:38:22.076Z,9.20
2019-03-09T07:41:25.320Z,9.30
2019-03-09T07:44:28.999Z,9.30
2019-03-09T07:47:32.189Z,9.30
2019-03-09T07:50:35.115Z,9.40
2019-03-09T07:53:38.045Z,9.40
2019-03-09T07:56:41.292Z,9.40
2019-03-09T07:59:44.599Z,9.40
2019-03-09T08:02:48.273Z,9.40
2019-03-09T08:05:51.502Z,9.40
2019-03-09T08:08:55.059Z,9.40
2019-03-09T08:11:58.357Z,9.50
2019-03-09T08:15:01.559Z,9.50
2019-03-09T08:18:05.013Z,9.50
2019-03-09T08:21:08.055Z,9.50
2019-03-09T08:24:12.545Z,9.60
2019-03-09T08:27:15.728Z,9.60
2019-03-09T08:30:20.643Z,9.60
2019-03-09T08:33:23.561Z,9.60
2019-03-09T08:36:26.769Z,9.60
2019-03-09T08:39:29.900Z,9.60
2019-03-09T08:42:33.342Z,9.70
2019-03-09T08:45:36.260Z,9.60
2019-03-09T08:48:39.210Z,9.60
2019-03-09T08:51:42.490Z,9.60
2019-03-09T08:54:45.432Z,9.60
2019-03-09T08:57:48.364Z,9.70
2019-03-09T09:00:51.674Z,9.70
2019-03-09T09:03:55.422Z,9.70
2019-03-09T09:06:58.833Z,9.70
2019-03-09T09:10:01.843Z,9.80
2019-03-09T09:13:05.347Z,9.90
2019-03-09T09:16:08.277Z,9.90
2019-03-09T09:19:11.795Z,10.00
2019-03-09T09:22:15.373Z,10.10
2019-03-09T09:25:18.629Z,10.10
2019-03-09T09:28:21.869Z,10.10
2019-03-09T09:31:24.819Z,10.20
2019-03-09T09:34:28.061Z,10.20
2019-03-09T09:37:30.961Z,10.30
2019-03-09T09:40:34.529Z,10.30
2019-03-09T09:43:37.752Z,10.30
2019-03-09T09:46:40.983Z,10.30
2019-03-09T09:49:44.621Z,10.30
2019-03-09T09:52:47.645Z,10.30
2019-03-09T09:55:50.855Z,10.30
2019-03-09T09:58:54.044Z,10.40
2019-03-09T10:01:57.589Z,10.30
2019-03-09T10:05:00.794Z,10.30
2019-03-09T10:08:03.737Z,10.30
2019-03-09T10:11:07.319Z,10.30
2019-03-09T10:14:10.794Z,10.30
2019-03-09T10:17:13.868Z,10.30
2019-03-09T10:20:17.165Z,10.30
2019-03-09T10:23:20.384Z,10.30
2019-03-09T10:26:26.572Z,10.40
2019-03-09T10:29:29.189Z,10.40
2019-03-09T10:32:32.183Z,10.50
2019-03-09T10:35:35.633Z,10.50
2019-03-09T10:38:38.567Z,10.40
2019-03-09T10:41:46.411Z,10.60
2019-03-09T10:44:50.321Z,10.60
2019-03-09T10:47:53.282Z,10.60
2019-03-09T10:50:56.767Z,10.50
2019-03-09T10:53:59.736Z,10.50
2019-03-09T10:57:03.455Z,10.60
2019-03-09T11:00:15.440Z,10.60
2019-03-09T11:03:19.339Z,10.60
2019-03-09T11:06:22.383Z,10.50
2019-03-09T11:09:25.354Z,10.60
2019-03-09T11:12:28.893Z,10.60
2019-03-09T11:15:39.452Z,10.60
2019-03-09T11:18:42.428Z,10.60
2019-03-09T11:21:45.381Z,10.70
2019-03-09T11:24:48.543Z,10.80
2019-03-09T11:27:53.057Z,10.80
2019-03-09T11:30:56.400Z,10.90
2019-03-09T11:34:00.401Z,11.00
2019-03-09T11:37:03.600Z,11.00
2019-03-09T11:40:07.132Z,11.00
2019-03-09T11:43:10.843Z,11.00
2019-03-09T11:46:14.171Z,11.00
2019-03-09T11:49:17.479Z,11.10
2019-03-09T11:52:20.801Z,11.10
2019-03-09T11:55:24.078Z,11.10
2019-03-09T11:58:27.100Z,11.20
2019-03-09T12:01:30.961Z,11.20
2019-03-09T12:04:33.903Z,11.30
2019-03-09T12:07:37.409Z,11.30
2019-03-09T12:10:40.998Z,11.30
2019-03-09T12:13:43.936Z,11.70
2019-03-09T12:16:47.196Z,11.70
2019-03-09T12:19:50.160Z,11.60
2019-03-09T12:23:00.993Z,11.60
2019-03-09T12:25:58.601Z,11.70
2019-03-09T12:29:01.827Z,11.70
2019-03-09T12:32:04.765Z,11.90
2019-03-09T12:35:08.337Z,11.80
2019-03-09T12:38:12.012Z,11.90
2019-03-09T12:41:14.941Z,12.10
2019-03-09T12:44:17.949Z,12.00
2019-03-09T12:47:21.279Z,12.00
2019-03-09T12:50:24.479Z,12.00
2019-03-09T12:53:27.433Z,12.00
2019-03-09T12:56:30.391Z,12.40
2019-03-09T12:59:33.664Z,12.40
2019-03-09T13:02:36.596Z,12.40
2019-03-09T13:05:40.128Z,12.20
2019-03-09T13:08:43.425Z,12.10
2019-03-09T13:11:46.765Z,12.00
2019-03-09T13:14:49.987Z,11.90
2019-03-09T13:17:52.924Z,11.80
2019-03-09T13:20:55.836Z,11.80
2019-03-09T13:23:59.172Z,11.80
2019-03-09T13:27:02.390Z,11.70
2019-03-09T13:30:07.130Z,12.10
2019-03-09T13:33:10.561Z,12.00
2019-03-09T13:36:14.200Z,12.20
2019-03-09T13:39:17.518Z,12.20
2019-03-09T13:42:20.471Z,12.00
2019-03-09T13:45:23.707Z,11.90
2019-03-09T13:48:26.959Z,11.80
2019-03-09T13:51:30.228Z,11.70
2019-03-09T13:54:33.510Z,11.60
2019-03-09T13:57:36.437Z,11.60
2019-03-09T14:00:41.872Z,11.50
2019-03-09T14:03:45.132Z,11.40
2019-03-09T14:06:49.326Z,11.20
2019-03-09T14:09:52.604Z,11.00
2019-03-09T14:12:55.561Z,10.60
2019-03-09T14:15:58.485Z,10.30
2019-03-09T14:19:02.311Z,10.10
2019-03-09T14:22:05.259Z,10.00
2019-03-09T14:25:08.881Z,9.90
2019-03-09T14:28:12.224Z,9.90
2019-03-09T14:31:15.921Z,10.00
2019-03-09T14:34:19.216Z,10.00
2019-03-09T14:37:22.136Z,10.00
2019-03-09T14:40:25.697Z,10.00
2019-03-09T14:43:28.652Z,10.00
2019-03-09T14:46:32.634Z,10.00
2019-03-09T14:49:36.760Z,10.00
2019-03-09T14:52:39.810Z,9.80
2019-03-09T14:55:42.762Z,9.90
2019-03-09T14:58:46.382Z,9.80
2019-03-09T15:01:49.664Z,9.70
2019-03-09T15:04:52.617Z,9.50
2019-03-09T15:07:55.549Z,9.50
2019-03-09T15:10:58.860Z,9.50
2019-03-09T15:14:02.140Z,9.50
2019-03-09T15:17:05.079Z,9.50
2019-03-09T15:20:09.335Z,9.60
2019-03-09T15:23:13.719Z,10.00
2019-03-09T15:26:17.096Z,10.20
2019-03-09T15:29:20.976Z,10.10
2019-03-09T15:32:24.172Z,10.00
2019-03-09T15:35:27.235Z,9.90
2019-03-09T15:38:30.656Z,9.90
2019-03-09T15:41:33.962Z,9.90
2019-03-09T15:44:36.900Z,9.90
2019-03-09T15:47:39.826Z,9.90
2019-03-09T15:50:43.105Z,9.80
2019-03-09T15:53:46.067Z,9.90
2019-03-09T15:56:48.970Z,9.80
2019-03-09T15:59:51.915Z,9.60
2019-03-09T16:02:54.842Z,9.30
2019-03-09T16:05:57.805Z,9.00
2019-03-09T16:09:00.717Z,8.80
2019-03-09T16:12:04.062Z,8.90
2019-03-09T16:15:08.601Z,8.90
2019-03-09T16:18:12.288Z,9.10
2019-03-09T16:21:15.594Z,9.20
2019-03-09T16:24:18.911Z,9.30
2019-03-09T16:27:21.867Z,9.30
2019-03-09T16:30:24.784Z,9.40
2019-03-09T16:33:28.085Z,8.90
2019-03-09T16:36:31.040Z,8.40
2019-03-09T16:39:34.378Z,8.20
2019-03-09T16:42:37.324Z,8.20
2019-03-09T16:45:40.512Z,8.30
2019-03-09T16:48:43.820Z,8.30
2019-03-09T16:51:47.169Z,8.40
2019-03-09T16:54:50.150Z,8.50
2019-03-09T16:57:53.091Z,8.60
2019-03-09T17:00:56.981Z,8.60
2019-03-09T17:04:00.578Z,8.70
2019-03-09T17:07:03.573Z,8.80
2019-03-09T17:10:06.848Z,8.80
2019-03-09T17:13:10.476Z,8.70
2019-03-09T17:16:13.383Z,8.70
2019-03-09T17:19:16.647Z,8.70
2019-03-09T17:22:20.254Z,8.70
2019-03-09T17:25:23.219Z,8.70
2019-03-09T17:28:26.159Z,8.70
2019-03-09T17:31:29.460Z,8.70
2019-03-09T17:34:32.522Z,8.70
2019-03-09T17:37:35.441Z,8.70
2019-03-09T17:40:38.676Z,8.70
2019-03-09T17:43:41.595Z,8.70
2019-03-09T17:46:44.871Z,8.80
2019-03-09T17:49:48.463Z,8.80
2019-03-09T17:52:51.835Z,8.80
2019-03-09T17:55:55.157Z,8.80
2019-03-09T17:58:59.553Z,8.90
2019-03-09T18:02:02.897Z,8.90
2019-03-09T18:05:07.220Z,8.90
2019-03-09T18:08:10.364Z,8.90
2019-03-09T18:11:13.424Z,8.90
2019-03-09T18:14:17.551Z,8.90
2019-03-09T18:17:20.813Z,8.90
2019-03-09T18:20:23.763Z,9.00
2019-03-09T18:23:26.716Z,9.00
2019-03-09T18:26:29.964Z,8.90
2019-03-09T18:29:34.261Z,9.00
2019-03-09T18:32:37.181Z,8.90
2019-03-09T18:35:41.845Z,8.80
2019-03-09T18:38:44.984Z,8.90
2019-03-09T18:41:48.553Z,9.00
2019-03-09T18:44:51.468Z,9.00
2019-03-09T18:47:54.985Z,9.00
2019-03-09T18:50:58.306Z,8.90
2019-03-09T18:54:01.259Z,9.00
2019-03-09T18:57:05.329Z,8.90
2019-03-09T19:00:11.284Z,9.00
2019-03-09T19:03:15.674Z,9.00
2019-03-09T19:06:19.237Z,8.90
2019-03-09T19:09:22.482Z,9.00
2019-03-09T19:12:26.140Z,9.00
2019-03-09T19:15:29.053Z,9.00
2019-03-09T19:18:31.994Z,9.10
2019-03-09T19:21:35.384Z,9.00
2019-03-09T19:24:38.336Z,9.00
2019-03-09T19:27:41.715Z,9.00
2019-03-09T19:30:44.945Z,9.00
2019-03-09T19:33:48.247Z,9.00
2019-03-09T19:36:51.536Z,8.90
2019-03-09T19:39:55.144Z,8.90
2019-03-09T19:42:58.831Z,8.80
2019-03-09T19:46:02.432Z,8.80
2019-03-09T19:49:05.519Z,8.90
2019-03-09T19:52:09.121Z,9.00
2019-03-09T19:55:12.748Z,9.10
2019-03-09T19:58:16.021Z,9.10
2019-03-09T20:01:19.286Z,9.10
2019-03-09T20:04:22.213Z,9.00
2019-03-09T20:07:25.179Z,9.00
2019-03-09T20:10:29.850Z,8.90
2019-03-09T20:13:33.372Z,9.00
2019-03-09T20:16:36.315Z,8.80
2019-03-09T20:19:39.627Z,8.90
2019-03-09T20:22:43.271Z,8.90
2019-03-09T20:25:46.213Z,8.70
2019-03-09T20:28:49.138Z,8.70
2019-03-09T20:31:52.505Z,8.80
2019-03-09T20:34:55.422Z,8.80
2019-03-09T20:37:58.392Z,8.90
2019-03-09T20:41:02.057Z,8.70
2019-03-09T20:44:05.364Z,8.70
2019-03-09T20:47:09.107Z,8.70
2019-03-09T20:50:13.391Z,8.70
2019-03-09T20:53:16.861Z,8.70
2019-03-09T20:56:20.485Z,8.80
2019-03-09T20:59:24.413Z,8.70
2019-03-09T21:02:27.653Z,8.80
2019-03-09T21:05:30.582Z,8.80
2019-03-09T21:08:34.088Z,8.90
2019-03-09T21:11:37.030Z,8.80
2019-03-09T21:14:40.228Z,8.90
2019-03-09T21:17:43.863Z,8.80
2019-03-09T21:20:46.771Z,8.80
2019-03-09T21:23:50.045Z,8.80
2019-03-09T21:26:53.762Z,8.80
2019-03-09T21:29:57.042Z,8.80
2019-03-09T21:33:00.050Z,8.90
2019-03-09T21:36:03.039Z,8.90
2019-03-09T21:39:07.235Z,8.80
2019-03-09T21:42:12.067Z,8.90
2019-03-09T21:45:15.309Z,8.80
2019-03-09T21:48:18.901Z,8.90
2019-03-09T21:51:22.187Z,8.80
2019-03-09T21:54:25.794Z,8.80
2019-03-09T21:57:28.830Z,8.80
2019-03-09T22:00:32.496Z,8.90
2019-03-09T22:03:35.531Z,8.80
2019-03-09T22:06:39.419Z,9.00
2019-03-09T22:09:42.770Z,8.80
2019-03-09T22:12:45.809Z,8.70
2019-03-09T22:15:48.716Z,8.80
2019-03-09T22:18:51.670Z,8.80
2019-03-09T22:21:54.936Z,8.80
2019-03-09T22:24:59.542Z,8.70
2019-03-09T22:28:02.542Z,8.80
2019-03-09T22:31:05.779Z,8.80
2019-03-09T22:34:09.012Z,8.80
2019-03-09T22:37:12.231Z,8.70
2019-03-09T22:40:15.222Z,8.80
2019-03-09T22:43:18.537Z,8.80
2019-03-09T22:46:21.798Z,8.80
2019-03-09T22:49:25.109Z,8.80
2019-03-09T22:52:28.285Z,8.80
2019-03-09T22:55:31.268Z,8.80
2019-03-09T22:58:34.347Z,8.90
2019-03-09T23:01:37.765Z,8.80
2019-03-09T23:04:40.831Z,8.80
2019-03-09T23:07:43.746Z,8.80
2019-03-09T23:10:46.985Z,8.90
2019-03-09T23:13:50.887Z,8.80
2019-03-09T23:16:54.157Z,8.80
2019-03-09T23:19:57.087Z,8.80
2019-03-09T23:23:00.327Z,8.80
2019-03-09T23:26:03.928Z,8.80
2019-03-09T23:29:07.042Z,8.80
2019-03-09T23:32:09.960Z,8.80
2019-03-09T23:35:13.439Z,8.90
2019-03-09T23:38:16.343Z,8.90
2019-03-09T23:41:20.409Z,8.90
2019-03-09T23:44:23.655Z,8.90
2019-03-09T23:47:26.909Z,8.90
2019-03-09T23:50:29.853Z,8.90
2019-03-09T23:53:32.788Z,9.00
2019-03-09T23:56:37.109Z,8.90
2019-03-09T23:59:40.380Z,9.00
